Miramar Marine Corps Air Station
KNKX : now visible

Airfield :











YOU CAN JOIN US ON...

 
LOGIN :

Register | Disclaimer

   EN    FR    IT 

 









Legend :    VFR   Marginal VFR   IFR   Intensive IFR   Very Intensive IFR
Visi :
Ceiling :
>= 8 km
>= 3000ft
5 to 8 km
1000 to 3000 ft
1500m to 5 km
500 to 1000 ft
800 to 1500m
200 to 500 ft
< 800m
< 200 ft
Symbols :   Thunderstorms  Fog  Heavy snow  Heavy precipitations  Wind > 20 kt






- Airport Elevation : 477 ft


KNKX - Miramar Marine Corps Air Station

CURRENT METAR :
  • 150655Z 24004KT 10SM BKN026 OVC034 14/09 A2996 RMK AO2 SLP140 T01390094

EXPIRED METARs :
  • 150555Z 26003KT 10SM BKN026 OVC034 15/10 A2995 RMK AO2 SLP139 60000 T01500100 10183 20150 53008
  • 150455Z 26004KT 10SM OVC025 16/10 A2994 RMK AO2 SLP135 T01560100

TAF TAF KNKX
Valid from the 15 at 03:00 until the 16 at 03:00 UTC


1503/1603 VRB05KT 9999 BKN025 OVC035 QNH2991INS
TEMPO 1509/1515 3200 BR OVC005
BECMG 1517/1519 31009KT 9999 FEW030 SCT250 QNH2995INS T09/1513Z T17/1521Z



MET'MAP, your aeronautical weather chart ! - Copyright ORBIFLY December 2007 - Disclaimer

ORBIFLY MET'MAP TEAM :

Programming & Development : Alexandra Zaïnal
Concept & original design : Baudouin d'Aumeries
Assistance for programming : Marc-Olivier Méhu
Technical & hardware support : Manuel Goepfert

Contact : metmap@orbifly.com




SOURCES & CREDITS :

   NOAA       Earth
Advisory